Terminal Aerodrome Forecast
Issued by NWS

Home | Current Version | Previous Version | Text Only | Print | Product List | Glossary On
Versions: 1 2 3 4 5 6 7 8 9 10 11 12 13 14 15 16 17 18 19 20 21 22 23 24 25 26 27 28 29 30
643
FTAK31 PANC 101133
TAFACD
TAF
PACD 101133Z 1012/1112 02018G30KT P6SM -RA SCT015 BKN025
      TEMPO 1012/1014 SCT025 OVC035
     FM101800 01025G35KT 6SM -RA SCT015 OVC025
     FM102100 03020G28KT 5SM -SHRA SCT007 OVC015
     FM110000 06018G25KT 6SM -RA BKN007 OVC025
     FM110300 10010KT 6SM BR VCSH SCT007 BKN025=

USA.gov is the U.S. government's official web portal to all federal, state and local government web resources and services.